createdAt,value
2022-10-28T01:22:44.511Z,2.50
2022-10-28T01:25:43.284Z,2.50
2022-10-28T01:28:18.918Z,2.80
2022-10-28T01:31:09.681Z,3.60
2022-10-28T01:33:46.738Z,2.80
2022-10-28T01:36:25.729Z,2.80
2022-10-28T01:39:02.809Z,3.10
2022-10-28T01:41:38.035Z,2.90
2022-10-28T01:44:27.531Z,3.10
2022-10-28T01:47:24.951Z,3.30
2022-10-28T01:50:06.561Z,4.20
2022-10-28T01:52:33.558Z,3.10
2022-10-28T01:55:13.270Z,3.30
2022-10-28T01:57:42.039Z,3.30
2022-10-28T02:00:10.040Z,3.80
2022-10-28T02:02:38.620Z,3.30
2022-10-28T02:05:43.202Z,3.60
2022-10-28T02:08:18.785Z,3.60
2022-10-28T02:11:00.608Z,3.90
2022-10-28T02:13:52.907Z,3.40
2022-10-28T02:16:32.933Z,3.90
2022-10-28T02:19:14.607Z,3.90
2022-10-28T02:22:02.979Z,3.60
2022-10-28T02:25:00.626Z,3.70
2022-10-28T02:27:44.820Z,3.70
2022-10-28T02:30:14.232Z,3.80
2022-10-28T02:32:45.313Z,3.00
2022-10-28T02:35:18.819Z,3.10
2022-10-28T02:37:47.344Z,3.30
2022-10-28T02:40:19.700Z,3.00
2022-10-28T02:43:01.010Z,3.10
2022-10-28T02:45:32.377Z,2.60
2022-10-28T02:48:03.506Z,2.60
2022-10-28T02:50:54.036Z,2.50
2022-10-28T02:53:29.016Z,2.80
2022-10-28T02:55:58.924Z,2.50
2022-10-28T02:58:25.463Z,2.90
2022-10-28T03:00:51.980Z,2.50
2022-10-28T03:03:18.571Z,2.90
2022-10-28T03:05:45.014Z,2.70
2022-10-28T03:08:11.436Z,2.60
2022-10-28T03:10:37.827Z,2.70
2022-10-28T03:13:04.226Z,2.80
2022-10-28T03:15:30.618Z,2.80
2022-10-28T03:17:57.098Z,2.90
2022-10-28T03:20:23.523Z,2.90
2022-10-28T03:22:49.868Z,2.90
2022-10-28T03:25:16.324Z,2.80
2022-10-28T03:27:42.702Z,2.90
2022-10-28T03:30:09.600Z,2.90
2022-10-28T03:32:36.004Z,3.40
2022-10-28T03:35:02.453Z,3.10
2022-10-28T03:37:28.843Z,2.90
2022-10-28T03:39:55.301Z,3.00
2022-10-28T03:42:21.737Z,3.00
2022-10-28T03:44:48.098Z,3.20
2022-10-28T03:47:14.466Z,3.20
2022-10-28T03:49:40.839Z,2.80
2022-10-28T03:52:07.229Z,2.90
2022-10-28T03:54:33.636Z,3.50
2022-10-28T03:57:00.155Z,3.20
2022-10-28T03:59:26.552Z,3.00
2022-10-28T04:01:53.089Z,3.40
2022-10-28T04:04:20.292Z,3.10
2022-10-28T04:06:46.703Z,3.50
2022-10-28T04:09:13.097Z,3.90
2022-10-28T04:11:39.485Z,3.70
2022-10-28T04:14:05.876Z,3.60
2022-10-28T04:16:32.251Z,3.20
2022-10-28T04:18:58.847Z,3.50
2022-10-28T04:21:25.206Z,3.10
2022-10-28T04:23:51.638Z,3.40
2022-10-28T04:26:18.182Z,3.50
2022-10-28T04:28:44.645Z,3.20
2022-10-28T04:31:12.202Z,3.20
2022-10-28T04:33:38.609Z,2.90
2022-10-28T04:36:05.201Z,3.10
2022-10-28T04:38:31.580Z,2.80
2022-10-28T04:40:58.126Z,3.50
2022-10-28T04:43:24.635Z,3.10
2022-10-28T04:45:51.042Z,3.10
2022-10-28T04:48:17.477Z,2.90
2022-10-28T04:50:43.895Z,3.30
2022-10-28T04:53:11.219Z,3.10
2022-10-28T04:55:37.594Z,3.40
2022-10-28T04:58:04.711Z,3.30
2022-10-28T05:00:31.358Z,3.20
2022-10-28T05:03:02.243Z,3.30
2022-10-28T05:05:28.690Z,3.60
2022-10-28T05:07:55.443Z,3.20
2022-10-28T05:10:22.595Z,3.50
2022-10-28T05:12:48.981Z,3.30
2022-10-28T05:15:15.617Z,4.10
2022-10-28T05:17:46.921Z,4.70
2022-10-28T05:20:15.760Z,4.00
2022-10-28T05:23:02.390Z,4.30
2022-10-28T05:25:28.895Z,4.00
2022-10-28T05:27:59.331Z,3.40
2022-10-28T05:30:26.928Z,4.00
2022-10-28T05:33:00.725Z,3.70
2022-10-28T05:35:27.632Z,4.00
2022-10-28T05:37:54.115Z,4.20
2022-10-28T05:40:20.665Z,4.60
2022-10-28T05:42:47.050Z,4.90
2022-10-28T05:45:13.666Z,4.30
2022-10-28T05:47:47.884Z,4.50
2022-10-28T05:50:15.966Z,4.30
2022-10-28T05:52:47.462Z,4.20
2022-10-28T05:55:14.489Z,3.70
2022-10-28T05:57:40.885Z,3.60
2022-10-28T06:00:08.117Z,3.90
2022-10-28T06:02:34.508Z,3.40
2022-10-28T06:05:00.975Z,4.00
2022-10-28T06:07:29.395Z,3.70
2022-10-28T06:09:55.903Z,3.80
2022-10-28T06:12:20.819Z,3.70
2022-10-28T06:14:47.332Z,5.00
2022-10-28T06:17:13.748Z,4.10
2022-10-28T06:19:40.179Z,4.10
2022-10-28T06:22:06.578Z,4.20
2022-10-28T06:24:33.067Z,4.60
2022-10-28T06:26:59.619Z,4.10
2022-10-28T06:29:26.023Z,5.30
2022-10-28T06:31:52.408Z,4.10
2022-10-28T06:34:18.972Z,4.10
2022-10-28T06:36:45.377Z,3.90
2022-10-28T06:39:11.774Z,4.20
2022-10-28T06:41:38.343Z,3.60
2022-10-28T06:44:04.892Z,3.90
2022-10-28T06:46:31.415Z,3.90
2022-10-28T06:49:03.144Z,3.60
2022-10-28T06:51:30.439Z,3.70
2022-10-28T06:53:56.902Z,3.50
2022-10-28T06:56:23.261Z,3.00
2022-10-28T06:58:53.954Z,3.50
2022-10-28T07:01:21.728Z,3.50
2022-10-28T07:03:48.947Z,3.10
2022-10-28T07:06:18.487Z,2.50
2022-10-28T07:08:44.898Z,2.70
2022-10-28T07:11:11.728Z,2.60
2022-10-28T07:13:38.219Z,2.80
2022-10-28T07:16:05.209Z,2.60
2022-10-28T07:18:32.323Z,2.50
2022-10-28T07:20:59.964Z,2.50
2022-10-28T07:23:26.863Z,2.80
2022-10-28T07:25:55.542Z,2.80
2022-10-28T07:28:26.197Z,2.70
2022-10-28T07:30:53.056Z,2.90
2022-10-28T07:33:19.991Z,2.70
2022-10-28T07:35:46.679Z,3.00
2022-10-28T07:38:13.279Z,3.00
2022-10-28T07:40:39.794Z,3.20
2022-10-28T07:43:06.331Z,3.20
2022-10-28T07:45:34.005Z,3.00
2022-10-28T07:48:00.459Z,3.20
2022-10-28T07:50:27.272Z,3.30
2022-10-28T07:52:54.124Z,3.00
2022-10-28T07:55:21.580Z,3.20
2022-10-28T07:57:48.617Z,3.30
2022-10-28T08:00:15.707Z,3.70
2022-10-28T08:02:42.585Z,3.40
2022-10-28T08:05:09.743Z,3.20
2022-10-28T08:07:38.579Z,3.50
2022-10-28T08:10:06.664Z,3.40
2022-10-28T08:12:33.218Z,3.90
2022-10-28T08:14:59.765Z,3.10
2022-10-28T08:17:26.190Z,3.50
2022-10-28T08:19:52.639Z,3.20
2022-10-28T08:22:19.041Z,3.00
2022-10-28T08:24:45.416Z,2.90
2022-10-28T08:27:11.829Z,2.90
2022-10-28T08:29:38.285Z,3.00
2022-10-28T08:32:08.449Z,3.00
2022-10-28T08:34:38.000Z,3.10
2022-10-28T08:37:07.545Z,3.20
2022-10-28T08:39:34.246Z,2.80
2022-10-28T08:42:15.431Z,3.30
2022-10-28T08:44:54.348Z,2.80
2022-10-28T08:47:39.838Z,2.80
2022-10-28T08:50:19.438Z,3.50
2022-10-28T08:53:03.828Z,2.70
2022-10-28T08:55:42.006Z,2.90
2022-10-28T08:58:24.204Z,3.10
2022-10-28T09:00:55.828Z,2.90
2022-10-28T09:03:25.642Z,3.10
2022-10-28T09:06:09.510Z,2.80
2022-10-28T09:08:41.590Z,3.20
2022-10-28T09:11:11.090Z,3.10
2022-10-28T09:14:02.980Z,3.30
2022-10-28T09:16:54.981Z,2.90
2022-10-28T09:19:39.546Z,2.80
2022-10-28T09:22:35.043Z,3.00
2022-10-28T09:25:21.833Z,2.90
2022-10-28T09:28:33.004Z,2.40
2022-10-28T09:31:19.150Z,2.80
2022-10-28T09:34:17.754Z,2.70
2022-10-28T09:36:51.939Z,2.50
2022-10-28T09:39:27.701Z,2.50
2022-10-28T09:41:57.302Z,2.70
2022-10-28T09:44:37.328Z,2.20
2022-10-28T09:47:24.359Z,3.00
2022-10-28T09:49:54.597Z,2.50
2022-10-28T09:52:31.394Z,2.40
2022-10-28T09:54:59.434Z,2.50
2022-10-28T09:57:30.864Z,2.70
2022-10-28T09:59:58.677Z,2.70
2022-10-28T10:02:29.801Z,2.60
2022-10-28T10:04:57.897Z,2.50
2022-10-28T10:07:40.617Z,3.20
2022-10-28T10:10:23.382Z,3.30
2022-10-28T10:12:52.696Z,2.40
2022-10-28T10:15:49.030Z,2.50
2022-10-28T10:18:22.570Z,2.60
2022-10-28T10:20:52.221Z,2.20
2022-10-28T10:23:26.590Z,2.60
2022-10-28T10:26:09.575Z,2.30
2022-10-28T10:28:50.817Z,2.40
2022-10-28T10:31:24.380Z,2.30
2022-10-28T10:33:57.087Z,2.60
2022-10-28T10:36:28.637Z,2.40
2022-10-28T10:38:57.815Z,2.50
2022-10-28T10:41:44.423Z,2.70
2022-10-28T10:44:23.187Z,2.30
2022-10-28T10:47:05.977Z,2.50
2022-10-28T10:49:34.944Z,2.40
2022-10-28T10:52:15.515Z,2.90
2022-10-28T10:55:03.021Z,2.10
2022-10-28T10:57:30.042Z,2.40
2022-10-28T10:59:57.645Z,2.50
2022-10-28T11:02:37.970Z,2.60
2022-10-28T11:05:08.671Z,3.10
2022-10-28T11:07:37.781Z,2.60
2022-10-28T11:10:05.386Z,2.70
2022-10-28T11:12:38.830Z,2.60
2022-10-28T11:15:28.187Z,2.60
2022-10-28T11:18:20.800Z,2.30
2022-10-28T11:21:17.988Z,2.50
2022-10-28T11:24:05.366Z,2.50
2022-10-28T11:26:40.878Z,2.60
2022-10-28T11:29:14.348Z,2.80
2022-10-28T11:32:12.847Z,2.90
2022-10-28T11:34:57.642Z,2.80
2022-10-28T11:37:37.563Z,2.20
2022-10-28T11:40:03.927Z,2.50
2022-10-28T11:42:53.961Z,2.40
2022-10-28T11:45:45.894Z,2.60
2022-10-28T11:48:33.722Z,2.60
2022-10-28T11:51:27.805Z,2.50
2022-10-28T11:54:06.413Z,2.40
2022-10-28T11:56:35.661Z,2.40
2022-10-28T11:59:25.371Z,2.80
2022-10-28T12:02:17.042Z,2.30
2022-10-28T12:05:15.593Z,2.40
2022-10-28T12:07:49.164Z,2.70
2022-10-28T12:10:30.866Z,2.70
2022-10-28T12:13:00.312Z,2.50
2022-10-28T12:15:50.504Z,2.60
2022-10-28T12:18:32.488Z,2.50
2022-10-28T12:21:07.389Z,2.50
2022-10-28T12:23:37.828Z,2.40
2022-10-28T12:26:09.571Z,2.60
2022-10-28T12:28:49.983Z,2.40
2022-10-28T12:31:30.284Z,2.40
2022-10-28T12:34:00.560Z,2.60
2022-10-28T12:36:52.399Z,2.40
2022-10-28T12:39:18.770Z,2.40
2022-10-28T12:41:57.181Z,2.30
2022-10-28T12:44:26.255Z,2.60
2022-10-28T12:47:16.498Z,2.80
2022-10-28T12:50:09.924Z,2.60
2022-10-28T12:52:51.281Z,2.50
2022-10-28T12:55:33.365Z,2.60
2022-10-28T12:58:15.607Z,2.70
2022-10-28T13:00:47.490Z,2.40
2022-10-28T13:03:15.792Z,2.40
2022-10-28T13:05:51.831Z,2.60
2022-10-28T13:08:46.165Z,2.40
2022-10-28T13:11:15.606Z,2.40
2022-10-28T13:14:10.721Z,2.70
2022-10-28T13:16:46.149Z,2.50
2022-10-28T13:19:37.492Z,2.50
2022-10-28T13:22:14.482Z,2.50
2022-10-28T13:25:05.190Z,2.30
2022-10-28T13:27:31.991Z,2.60
2022-10-28T13:30:00.846Z,2.50
2022-10-28T13:32:39.024Z,2.20
2022-10-28T13:35:16.374Z,2.70
2022-10-28T13:37:47.482Z,2.50
2022-10-28T13:40:41.533Z,2.60
2022-10-28T13:43:48.474Z,2.80
2022-10-28T13:46:59.611Z,2.80
2022-10-28T13:49:28.349Z,2.60
2022-10-28T13:52:19.416Z,2.50
2022-10-28T13:54:45.760Z,2.40
2022-10-28T13:57:36.814Z,2.40
2022-10-28T14:00:26.156Z,2.50
2022-10-28T14:03:05.107Z,2.90
2022-10-28T14:05:38.143Z,2.90
2022-10-28T14:08:33.822Z,2.70
2022-10-28T14:11:09.890Z,2.60
2022-10-28T14:13:59.613Z,2.60
2022-10-28T14:16:31.356Z,2.50
2022-10-28T14:19:16.812Z,2.80
2022-10-28T14:22:07.291Z,2.80
2022-10-28T14:24:36.857Z,2.30
2022-10-28T14:27:09.841Z,2.60
2022-10-28T14:30:04.074Z,2.50
2022-10-28T14:32:33.714Z,2.50
2022-10-28T14:35:15.366Z,2.20
2022-10-28T14:38:12.627Z,2.70
2022-10-28T14:40:50.547Z,2.70
2022-10-28T14:43:46.427Z,2.60
2022-10-28T14:46:36.045Z,2.50
2022-10-28T14:49:04.119Z,2.70
2022-10-28T14:51:39.088Z,3.00
2022-10-28T14:54:12.677Z,2.70
2022-10-28T14:56:40.874Z,2.60
2022-10-28T14:59:16.476Z,2.70
2022-10-28T15:02:07.614Z,3.20
2022-10-28T15:04:34.231Z,3.10
2022-10-28T15:07:00.880Z,2.70
2022-10-28T15:09:30.543Z,3.60
2022-10-28T15:12:17.680Z,2.90
2022-10-28T15:14:55.769Z,3.00
2022-10-28T15:17:28.048Z,2.90
2022-10-28T15:19:59.894Z,2.70
2022-10-28T15:22:30.550Z,2.90
2022-10-28T15:25:18.205Z,2.60
2022-10-28T15:27:46.724Z,2.50
2022-10-28T15:30:15.183Z,2.80
2022-10-28T15:32:41.793Z,2.80
2022-10-28T15:35:26.930Z,2.80
2022-10-28T15:37:54.811Z,2.70
2022-10-28T15:40:30.355Z,2.80
2022-10-28T15:43:02.734Z,2.80
2022-10-28T15:45:31.877Z,2.90
2022-10-28T15:47:59.807Z,2.60
2022-10-28T15:50:32.613Z,3.00
2022-10-28T15:53:11.044Z,2.60
2022-10-28T15:56:06.767Z,2.60
2022-10-28T15:58:29.037Z,2.50
2022-10-28T16:00:58.795Z,2.60
2022-10-28T16:03:40.325Z,3.10
2022-10-28T16:06:19.718Z,2.70
2022-10-28T16:08:46.581Z,3.40
2022-10-28T16:11:20.140Z,3.80
2022-10-28T16:13:49.317Z,4.10
2022-10-28T16:16:25.664Z,4.00
2022-10-28T16:19:21.576Z,3.90
2022-10-28T16:21:47.973Z,4.10
2022-10-28T16:24:14.359Z,3.30
2022-10-28T16:26:40.744Z,4.10
2022-10-28T16:29:07.432Z,4.10
2022-10-28T16:31:34.469Z,4.20
2022-10-28T16:34:00.958Z,4.20
2022-10-28T16:36:28.598Z,4.00
2022-10-28T16:38:55.004Z,3.40
2022-10-28T16:41:21.755Z,3.90
2022-10-28T16:43:48.164Z,4.30
2022-10-28T16:46:15.032Z,4.20
2022-10-28T16:48:41.708Z,4.20
2022-10-28T16:51:17.523Z,3.20
2022-10-28T16:53:47.306Z,2.90
2022-10-28T16:56:17.753Z,2.80
2022-10-28T16:58:44.353Z,2.80
2022-10-28T17:01:11.916Z,2.90
2022-10-28T17:03:38.596Z,3.20
2022-10-28T17:06:05.227Z,2.90
2022-10-28T17:09:00.840Z,2.90
2022-10-28T17:11:18.111Z,3.70
2022-10-28T17:13:44.666Z,2.90
2022-10-28T17:16:12.791Z,2.70
2022-10-28T17:18:39.213Z,2.70
2022-10-28T17:21:05.879Z,2.80
2022-10-28T17:23:32.273Z,2.80
2022-10-28T17:26:00.630Z,2.90
2022-10-28T17:28:27.034Z,2.70
2022-10-28T17:30:53.734Z,2.60
2022-10-28T17:33:20.237Z,2.70
2022-10-28T17:35:46.612Z,2.60
2022-10-28T17:38:13.023Z,3.00
2022-10-28T17:40:39.527Z,2.90
2022-10-28T17:43:05.989Z,2.70
2022-10-28T17:45:32.392Z,3.30
2022-10-28T17:47:59.660Z,2.80
2022-10-28T17:50:26.098Z,2.70
2022-10-28T17:52:53.462Z,2.60
2022-10-28T17:55:20.214Z,2.70
2022-10-28T17:57:47.252Z,2.90
2022-10-28T18:00:14.407Z,2.80
2022-10-28T18:02:41.167Z,3.30
2022-10-28T18:05:13.995Z,3.10
2022-10-28T18:07:40.475Z,3.00
2022-10-28T18:10:08.139Z,2.60
2022-10-28T18:12:34.591Z,2.40
2022-10-28T18:15:01.001Z,3.20
2022-10-28T18:17:27.450Z,3.00
2022-10-28T18:19:57.641Z,3.20
2022-10-28T18:24:50.661Z,2.50
2022-10-28T18:27:17.213Z,2.70
2022-10-28T18:29:43.604Z,3.50
2022-10-28T18:32:11.283Z,2.90
2022-10-28T18:34:37.733Z,3.00
2022-10-28T18:37:07.999Z,2.90
2022-10-28T18:39:34.422Z,2.80
2022-10-28T18:42:00.857Z,2.90
2022-10-28T18:44:31.801Z,2.90
2022-10-28T18:46:59.158Z,3.10
2022-10-28T18:49:25.688Z,2.70
2022-10-28T18:51:52.085Z,3.20
2022-10-28T18:54:18.480Z,2.80
2022-10-28T18:56:47.831Z,2.80
2022-10-28T18:59:14.848Z,2.80
2022-10-28T19:01:46.639Z,2.80
2022-10-28T19:04:14.305Z,3.00
2022-10-28T19:06:41.386Z,3.10
2022-10-28T19:09:07.928Z,3.00
2022-10-28T19:11:34.577Z,2.80
2022-10-28T19:14:03.548Z,2.90
2022-10-28T19:16:33.623Z,3.20
2022-10-28T19:19:02.128Z,4.60
2022-10-28T19:21:29.067Z,3.00
2022-10-28T19:23:55.600Z,3.00
2022-10-28T19:26:23.037Z,3.00
2022-10-28T19:28:51.620Z,2.90
2022-10-28T19:31:20.912Z,3.20
2022-10-28T19:33:48.239Z,3.40
2022-10-28T19:36:20.932Z,3.40
2022-10-28T19:38:48.975Z,3.30
2022-10-28T19:41:21.521Z,2.90
2022-10-28T19:43:48.655Z,3.20
2022-10-28T19:46:19.343Z,3.20
2022-10-28T19:48:48.177Z,3.20
2022-10-28T19:51:17.536Z,3.20
2022-10-28T19:53:52.587Z,3.40
2022-10-28T19:56:20.260Z,3.80
2022-10-28T19:58:49.037Z,3.20
2022-10-28T20:01:16.780Z,3.70
2022-10-28T20:03:48.947Z,3.70
2022-10-28T20:06:16.548Z,3.80
2022-10-28T20:08:44.747Z,3.40
2022-10-28T20:11:13.850Z,3.50
2022-10-28T20:13:40.414Z,3.30
2022-10-28T20:16:10.750Z,3.60
2022-10-28T20:18:37.751Z,3.40
2022-10-28T20:21:16.043Z,3.50
2022-10-28T20:23:44.345Z,4.00
2022-10-28T20:26:12.018Z,3.20
2022-10-28T20:28:39.260Z,4.10
2022-10-28T20:31:14.389Z,3.20
2022-10-28T20:33:43.482Z,3.50
2022-10-28T20:36:26.269Z,3.60
2022-10-28T20:39:01.228Z,3.10
2022-10-28T20:41:30.409Z,3.30
2022-10-28T20:43:57.430Z,3.60
2022-10-28T20:46:25.294Z,3.70
2022-10-28T20:48:54.234Z,4.30
2022-10-28T20:51:21.991Z,3.70
2022-10-28T20:53:48.879Z,3.20
2022-10-28T20:56:24.064Z,3.20
2022-10-28T20:58:51.258Z,4.00
2022-10-28T21:01:19.635Z,3.70
2022-10-28T21:03:47.699Z,3.60
2022-10-28T21:06:16.440Z,3.70
2022-10-28T21:08:43.551Z,4.40
2022-10-28T21:11:13.309Z,3.70
2022-10-28T21:13:40.684Z,3.60
2022-10-28T21:16:09.041Z,3.70
2022-10-28T21:18:37.027Z,4.80
2022-10-28T21:21:04.122Z,3.80
2022-10-28T21:23:30.565Z,3.60
2022-10-28T21:26:02.662Z,3.70
2022-10-28T21:28:30.500Z,3.70
2022-10-28T21:31:01.448Z,3.60
2022-10-28T21:33:28.747Z,3.70
2022-10-28T21:35:57.225Z,3.50
2022-10-28T21:38:24.683Z,3.20
2022-10-28T21:41:09.577Z,3.40
2022-10-28T21:43:44.017Z,2.90
2022-10-28T21:46:11.695Z,3.60
2022-10-28T21:48:38.293Z,3.80
2022-10-28T21:51:11.613Z,3.70
2022-10-28T21:53:41.895Z,3.70
2022-10-28T21:56:18.877Z,3.60
2022-10-28T21:58:49.990Z,3.20
2022-10-28T22:01:22.597Z,3.30
2022-10-28T22:03:50.361Z,3.30
2022-10-28T22:06:16.804Z,3.40
2022-10-28T22:08:43.288Z,3.70
2022-10-28T22:11:15.655Z,3.60
2022-10-28T22:13:42.136Z,3.40
2022-10-28T22:16:11.754Z,3.40
2022-10-28T22:18:38.539Z,3.80
2022-10-28T22:21:11.778Z,3.90
2022-10-28T22:23:38.892Z,3.50
2022-10-28T22:26:07.924Z,3.90
2022-10-28T22:28:34.750Z,3.40
2022-10-28T22:31:04.411Z,3.60
2022-10-28T22:33:31.070Z,4.10
2022-10-28T22:36:02.398Z,4.40
2022-10-28T22:38:29.460Z,4.10
2022-10-28T22:41:15.470Z,4.10
2022-10-28T22:43:43.502Z,3.60
2022-10-28T22:46:11.363Z,3.90
2022-10-28T22:48:38.058Z,4.10
2022-10-28T22:51:05.088Z,4.60
2022-10-28T22:53:31.509Z,4.00
2022-10-28T22:55:58.313Z,4.40
2022-10-28T22:58:27.219Z,4.40
2022-10-28T23:00:54.251Z,3.90
2022-10-28T23:03:20.768Z,4.00
2022-10-28T23:05:47.171Z,4.00
2022-10-28T23:08:15.868Z,4.50
2022-10-28T23:10:42.304Z,4.10
2022-10-28T23:13:12.224Z,4.30
2022-10-28T23:15:38.968Z,4.00
2022-10-28T23:18:05.536Z,4.20
2022-10-28T23:20:38.165Z,4.70
2022-10-28T23:23:04.710Z,5.20
2022-10-28T23:25:31.278Z,3.90
2022-10-28T23:27:58.072Z,4.10
2022-10-28T23:30:25.274Z,4.20
2022-10-28T23:32:51.667Z,4.40
2022-10-28T23:35:18.097Z,4.60
2022-10-28T23:37:44.569Z,4.30
2022-10-28T23:40:11.579Z,3.90
2022-10-28T23:42:38.007Z,4.30
2022-10-28T23:45:05.077Z,4.00
2022-10-28T23:47:31.471Z,4.50
2022-10-28T23:49:57.855Z,4.30
2022-10-28T23:52:24.286Z,4.70
2022-10-28T23:54:51.050Z,4.40
2022-10-28T23:57:17.491Z,5.40
2022-10-28T23:59:43.894Z,4.40
